Ashley, Pennsylvania
Current Conditions -  °F | °C
As of 1:54 PM on Thursday 30 Oct 2014 (Local Time) from KAVP Reporting Station
Overcast Overcast  
Wind Chill: 45°   Ceiling: 3700
Heat Index: 49°   Visibility: 10mi
Dew Point: 33°   Wind: 8mph
Humidity: 54%   Direction: 270°W
Pressure: 30.02"   Gusts: NA
Location:  41.1921°N, 75.9213°W
Report Text: KAVP 301754Z 27007KT 10SM OVC037 09/01 A3002 RMK AO2 SLP166 T00940006 10100 20061 58005
Loading
Personal Weather Stations






























Interactive Weather Map
Tropical Storm Tracking
New forecast layout! Learn more

10-Day Weather Forecast

Advertisements
Track Severe Weather on mobile